Terminal Aerodrome Forecast
Issued by NWS Glasgow, MT

Home | Current Version | Previous Version | Text Only | Print | Product List | Glossary On
Versions: 1 2 3 4 5 6 7 8 9 10 11 12 13 14 15
000
FTUS45 KGGW 252320
TAFGGW
TAF
KGGW 252320Z 2600/2624 33010KT P6SM SCT015 BKN040
     FM260500 08004KT P6SM BKN070
     FM261300 24007KT P6SM OVC050
     FM261700 30011G19KT P6SM OVC025=

USA.gov is the U.S. government's official web portal to all federal, state and local government web resources and services.